Archival Weather

San Francisco Intl

San Francisco, California (KSFO)

Report from: Monday, January 16, 2023 8:56 PM PST
Current time: Friday, April 19, 2024 2:25 AM PDT

Current weather – Weather history – Daily summaries
Weather forecast

Temperature11.7°C (53.1°F)
Dew point6.7°C (44.1°F)
Winds 14 kts (7.2 m/s, 16.1 mph) West (270°)
Wind gusts 21 kts (10.8 m/s, 24.2 mph)
Visibility10 mi. (16.1 km)
Clouds Few clouds 2,800 ft. (853 m)
Scattered clouds 4,500 ft. (1,372 m)
Ceiling: Broken clouds 20,000 ft. (6,096 m)
Altimeter29.85 in.Hg (1011 mB)
Relative humidity71 %
Density altitude-161 ft. (-49 m)
Sea-level pressure101.1 kPa (1011 mB, 29.84 in.Hg)
Remarks System requires maintenance
Automated weather observing station with precipitation discriminator
Flight conditions Visual Meteorological Conditions
Raw dataKSFO 170456Z 27014G21KT 10SM FEW028 SCT045 BKN200 12/07 A2985 RMK AO2 SLP106 T01170067 $
An error has occurred. This application may no longer respond until reloaded. Reload 🗙